KHMZ

Bedford County Airport

Bedford, Pennsylvania, USA
METAR KHMZ 131035Z AUTO 00000KT 10SM OVC065 M01/M03 A3014 RMK AO2 T10061028
Observed Flight Rules
Dec-13 @ 10:35 UTC (16 minutes ago) Visual Flight Rules
Visibility Clouds
10 miles
  • Overcast at 6,500' AGL
Temperatures Readings
Current -1°C / 30°F
Dewpoint -3°C / 27°F
Humidity 86%
Altimeter 30.14" Hg
Pressure 1021 hPa
Elevation 354
METAR KHMZ 131035Z AUTO 00000KT 10SM OVC065 M01/M03 A3014 RMK AO2 T10061028
Observed Flight Rules
Dec-13 @ 10:35 UTC
(16 minutes ago)
VFR
Clouds
  • Overcast at 6,500' AGL
Temperature Dewpoint
-1°C / 30°F -3°C / 27°F
Humidity Altimeter Pressure
86% 30.14" Hg 1021 hPa